ADDS TAF Data INFO
IDs: Format: Raw Decoded Include METARs

Data at: 1555 UTC 23 Apr 2017

Region: TOP
KATL 231553Z 2316/2418 12008KT 5SM -RA BR BKN009 OVC012
  TEMPO 2316/2320 3SM SHRA
  FM232000 21008KT 5SM -SHRA BR BKN012
  FM232300 27007KT P6SM VCSH BKN012
  FM240300 29007KT 5SM -DZ BR OVC008
  FM241500 31008KT P6SM OVC012


KBOS 231518Z 2315/2418 11010KT P6SM SKC
  FM232300 17010KT P6SM SKC
  FM240000 18009KT P6SM FEW250
  FM240400 22008KT P6SM FEW250
  FM241400 15004KT P6SM FEW250


KBWI 231503Z 2315/2418 06006KT P6SM SCT035 BKN250
  FM232100 10006KT P6SM SCT045 BKN150
  FM240600 08004KT P6SM -RA SCT025 OVC045
  FM241300 05008KT P6SM -RA SCT030 OVC035


KCLE 231544Z 2316/2418 12003KT P6SM SKC
  FM231700 05006KT P6SM SCT250


KCLT 231458Z 2315/2412 04011G17KT 5SM SHRA BR BKN006 OVC012
  FM231800 04010G18KT P6SM -SHRA OVC007
  FM240000 06013G23KT 5SM SHRA OVC008
  PROB30 2400/2404 2SM TSRA OVC003CB
  FM240700 07012G20KT 4SM SHRA BR OVC003


KCVG 231456Z 2315/2418 05014G21KT P6SM SCT110 BKN250
  FM240000 05006KT P6SM FEW230
  FM241500 07012KT P6SM SCT030 BKN100


KDCA 231503Z 2315/2412 04006KT P6SM SCT035 BKN200
  FM231900 08006KT P6SM SCT040 BKN120
  FM240400 07004KT P6SM OVC030
  FM240600 06005KT P6SM -RA OVC025


KDEN 231502Z 2315/2418 24010KT P6SM SCT150 BKN240
  FM231700 15006KT P6SM FEW150 BKN240
  FM232300 28011KT P6SM SCT120 BKN220
  FM240100 15007KT P6SM BKN110 BKN200
  FM240400 21011KT P6SM BKN250
  FM240900 35012KT P6SM FEW140 BKN220
  FM241300 VRB05KT P6SM FEW120 SCT220


KDFW 231456Z 2315/2418 35012KT P6SM SKC
  FM240700 15004KT P6SM SKC
  FM241500 17011KT P6SM SKC


KDTW 231459Z 2315/2418 VRB03KT P6SM SKC
  FM232100 13006KT P6SM SKC
  FM240500 03008KT P6SM SKC


KEWR 231431Z 2315/2418 03006KT P6SM FEW250
  FM231800 14006KT P6SM SCT250
  FM232200 18007KT P6SM BKN250
  FM240300 19004KT P6SM BKN200
  FM241000 09004KT P6SM BKN150


KFLL 231504Z 2315/2412 17011KT 6SM -SHRA SCT015 BKN035 OVC050
  TEMPO 2315/2317 VRB06KT 3SM TSRA SCT005 BKN015CB
  FM232300 24005KT P6SM VCSH FEW015 SCT030 BKN120
  FM240600 VRB05KT P6SM FEW250


KIAD 231503Z 2315/2418 04006KT P6SM SCT040 BKN250
  FM231900 08006KT P6SM SCT045 BKN150
  FM240600 06004KT P6SM -RA BKN015 OVC025
  FM240800 04005KT P6SM -RA BKN020 OVC025
  FM241200 04007KT P6SM -RA BKN015 OVC025


KIAH 231507Z 2315/2418 35015KT P6SM FEW025 FEW100
  FM240000 35008KT P6SM SKC
  FM240200 VRB03KT P6SM SKC


KJFK 231431Z 2315/2418 03008KT P6SM FEW250
  FM231700 18010KT P6SM SCT250
  FM240100 19007KT P6SM BKN250
  FM240900 14004KT P6SM BKN200
  FM241300 10006KT P6SM BKN150


KLAS 231540Z 2316/2412 22012KT P6SM BKN250
  FM231700 22018G28KT P6SM SCT250
  FM232100 24022G32KT P6SM SCT250
  FM240200 24014G24KT P6SM SCT250


KLAX 231508Z 2315/2418 VRB03KT P6SM SCT200
  FM231700 25010KT P6SM SCT200
  FM232100 26015KT P6SM SKC
  FM240400 26008KT P6SM SKC
  FM241000 VRB03KT P6SM BKN015


KLGA 231431Z 2315/2412 06007KT P6SM FEW250
  FM232000 17009KT P6SM SCT250
  FM240200 19005KT P6SM BKN250
  FM240900 13004KT P6SM BKN200


KMCO 231504Z 2315/2412 16008KT P6SM VCSH SCT025 BKN090
  FM231800 11008KT P6SM VCSH SCT035 BKN060
  FM240300 VRB04KT P6SM SCT035 BKN200


KMDW 231504Z 2315/2412 30004KT P6SM FEW250
  FM231900 09008KT P6SM FEW250
  FM240200 05006KT P6SM FEW250


KMEM 231452Z 2315/2412 35012KT 6SM -DZ FEW020 BKN035
  FM231700 36012G18KT P6SM BKN025 OVC045
  FM231900 36014G20KT P6SM OVC035
  FM232100 36014G20KT P6SM BKN045
  FM240100 01006KT P6SM SKC


KMIA 231504Z 2315/2412 15010KT P6SM -SHRA SCT015 BKN040 OVC060
  TEMPO 2315/2317 VRB15KT 3SM TSRA SCT005CB BKN015
  FM232000 24010KT P6SM VCSH FEW015 SCT030 BKN120
  FM240200 VRB05KT P6SM FEW250


KMSP 231456Z 2315/2418 06008KT P6SM SCT250
  FM232000 13006KT P6SM SCT250
  FM240900 15007KT P6SM BKN200 WS020/21040KT
  FM241500 16012G20KT P6SM BKN200


KORD 231504Z 2315/2418 30004KT P6SM FEW250
  FM232000 09008KT P6SM FEW250
  FM240100 04006KT P6SM FEW250


KPDX 231508Z 2315/2412 14005KT P6SM -SHRA SCT040 OVC060
  FM231800 20010KT P6SM -SHRA SCT025 OVC050
  FM240600 16007KT P6SM -RA SCT025 OVC035


KPHL 231457Z 2315/2418 10006KT P6SM SCT250
  FM232100 15006KT P6SM SCT200
  FM240600 VRB04KT P6SM BKN100
  FM241300 06007KT P6SM OVC070


KPHX 231433Z 2315/2412 10009KT P6SM FEW250
  TEMPO 2315/2318 11011G20KT
  FM232100 23009G17KT P6SM SCT250
  FM240300 25008KT P6SM FEW250
  FM241000 10010KT P6SM FEW250


KPIT 231456Z 2315/2418 09008KT P6SM SKC
  FM241500 09008KT P6SM OVC100


KSAN 231448Z 2315/2418 VRB04KT P6SM SCT012 BKN250
  FM231900 25011KT P6SM FEW020 SCT200
  FM240200 VRB05KT P6SM BKN018
  FM241100 18006KT P6SM OVC022
  FM241700 20007KT P6SM SCT025


KSEA 231449Z 2315/2418 16005KT P6SM BKN050
  FM231900 21007KT P6SM -RA OVC050
  FM232300 21010KT P6SM -RA BKN030 OVC050
  FM240200 20010KT P6SM -RA BKN025 OVC040
  FM240900 18006KT P6SM VCSH SCT025 BKN040 OVC060
  FM241500 04004KT P6SM BKN050 BKN100


KSFO 231451Z 2315/2418 28014KT P6SM FEW015 SCT200
  FM231900 28020G28KT P6SM FEW035 SCT200
  FM240400 28015G23KT P6SM SCT020 BKN180
  TEMPO 2409/2413 BKN015
  FM241300 27012G20KT P6SM SCT020 BKN150


KSLC 231500Z 2315/2418 17010KT P6SM BKN200
  FM231700 30010KT P6SM SCT080 BKN120
  FM232000 35012G20KT P6SM VCSH SCT060 BKN100
  FM240400 16009KT P6SM SCT070 BKN120
  FM240700 15006KT P6SM SCT150


KSTL 231507Z 2315/2418 03009KT P6SM SKC
  FM241200 00000KT P6SM SKC


KTPA 231451Z 2315/2412 VRB03KT P6SM SCT025 BKN250
  FM231600 25006KT P6SM SCT030 SCT060
  FM231800 26007KT P6SM VCTS FEW020CB SCT030 BKN060
  FM232300 30009KT P6SM FEW035 BKN060
  FM240300 29004KT P6SM FEW040 BKN250
  FM241000 24006KT P6SM SCT015 BKN025



Page loaded:  15:55 UTC  |   08:55 AM Pacific  |   09:55 AM Mountain  |   10:55 AM Central  |   11:55 AM Eastern

 

ADVISORIES

FORECASTS

FORECASTS

OBSERVATIONS

USER TOOLS

ABOUT US